Time;durP1;ratioP1;P1;durP2;ratioP2;P2;SDS_P1;SDS_P2;PMS_P1;PMS_P2;Temp;Humidity;BMP_temperature;BMP_pressure;BME280_temperature;BME280_humidity;BME280_pressure;Samples;Min_cycle;Max_cycle;Signal;HPM_P1;HPM_P2
2023/06/22 00:01:22;;;;;;;4.60;3.00;;;22.60;99.90;;;;;;5020327;28;20056;-96
2023/06/22 00:03:48;;;;;;;7.43;3.13;;;22.60;99.90;;;;;;5036843;28;20116;-95
2023/06/22 00:06:16;;;;;;;4.07;2.80;;;22.50;99.90;;;;;;5020738;28;20407;-93
2023/06/22 00:08:44;;;;;;;4.53;3.20;;;22.50;99.90;;;;;;5028483;28;20035;-95
2023/06/22 00:11:13;;;;;;;4.07;2.90;;;22.50;99.90;;;;;;5042514;28;20029;-96
2023/06/22 00:13:43;;;;;;;5.70;3.00;;;22.50;99.90;;;;;;5039372;28;20079;-95
2023/06/22 00:16:11;;;;;;;4.80;3.13;;;22.40;99.90;;;;;;5023094;28;20116;-96
2023/06/22 00:18:37;;;;;;;3.95;2.53;;;22.40;99.90;;;;;;5040006;28;20552;-95
2023/06/22 00:21:03;;;;;;;4.30;2.63;;;22.40;99.90;;;;;;5041973;28;20127;-95
2023/06/22 00:23:34;;;;;;;7.22;2.72;;;22.40;99.90;;;;;;5040475;28;20116;-96
2023/06/22 00:26:00;;;;;;;4.60;2.47;;;22.40;99.90;;;;;;5039886;28;20443;-95
2023/06/22 00:28:28;;;;;;;3.90;2.55;;;22.40;99.90;;;;;;5039157;28;20115;-96
2023/06/22 00:30:54;;;;;;;6.10;2.85;;;22.30;99.90;;;;;;5040104;28;20515;-96
2023/06/22 00:33:22;;;;;;;5.03;2.60;;;22.30;99.90;;;;;;5039879;28;20048;-96
2023/06/22 00:35:48;;;;;;;3.90;2.80;;;22.30;99.90;;;;;;5023071;28;20025;-95
2023/06/22 00:38:14;;;;;;;5.15;3.15;;;22.20;99.90;;;;;;5040270;28;20115;-96
2023/06/22 00:40:39;;;;;;;5.90;3.53;;;22.20;99.90;;;;;;5039985;28;20136;-95
2023/06/22 00:43:15;;;;;;;4.72;3.33;;;22.20;99.90;;;;;;5038851;28;20017;-96
2023/06/22 00:45:41;;;;;;;7.22;3.35;;;22.20;99.90;;;;;;5039986;28;20032;-96
2023/06/22 00:48:10;;;;;;;5.10;3.40;;;22.20;99.90;;;;;;5038980;28;20017;-95
2023/06/22 00:50:40;;;;;;;5.78;3.38;;;22.10;99.90;;;;;;5038891;28;20025;-94
2023/06/22 00:53:08;;;;;;;6.05;3.40;;;22.10;99.90;;;;;;5038531;28;20021;-95
2023/06/22 00:55:46;;;;;;;8.27;4.35;;;22.10;99.90;;;;;;5037568;28;20029;-96
2023/06/22 00:58:13;;;;;;;6.10;3.50;;;22.10;99.90;;;;;;5037715;28;20029;-95
2023/06/22 01:00:40;;;;;;;6.43;3.95;;;22.10;99.90;;;;;;5037100;28;20056;-95
2023/06/22 01:03:09;;;;;;;6.32;3.80;;;22.00;99.90;;;;;;5039720;28;20028;-95
2023/06/22 01:05:37;;;;;;;6.18;3.60;;;22.00;99.90;;;;;;5041681;28;20028;-96
2023/06/22 01:08:16;;;;;;;7.68;4.40;;;22.00;99.90;;;;;;5060110;28;20025;-96
2023/06/22 01:11:01;;;;;;;6.32;3.75;;;22.00;99.90;;;;;;5045012;28;20029;-95
2023/06/22 01:13:55;;;;;;;5.85;3.90;;;22.00;99.90;;;;;;5041863;28;20119;-95
2023/06/22 01:16:29;;;;;;;6.93;3.75;;;22.00;99.90;;;;;;5037301;28;20068;-95
2023/06/22 01:19:08;;;;;;;7.03;4.32;;;21.90;99.90;;;;;;5039903;28;20043;-95
2023/06/22 01:21:41;;;;;;;6.45;3.80;;;21.90;99.90;;;;;;5049344;28;20053;-95
2023/06/22 01:24:41;;;;;;;7.45;4.60;;;21.90;99.90;;;;;;5057740;28;20085;-96
2023/06/22 01:27:31;;;;;;;6.68;4.25;;;21.80;99.90;;;;;;5055284;28;20086;-96
2023/06/22 01:30:04;;;;;;;8.40;3.80;;;21.80;99.90;;;;;;5053445;28;20462;-95
2023/06/22 01:32:33;;;;;;;5.28;3.97;;;21.80;99.90;;;;;;5035913;28;20123;-96
2023/06/22 01:35:03;;;;;;;5.63;3.80;;;21.70;99.90;;;;;;5047462;28;20116;-95
2023/06/22 01:45:15;;;;;;;6.25;3.90;;;21.60;99.90;;;;;;5054719;28;20464;-89
2023/06/22 01:47:41;;;;;;;7.20;4.03;;;21.60;99.90;;;;;;5040016;28;20029;-89
2023/06/22 01:50:08;;;;;;;6.45;4.20;;;21.50;99.90;;;;;;5023356;28;20025;-88
2023/06/22 01:52:33;;;;;;;6.28;4.07;;;21.50;99.90;;;;;;5039909;28;20071;-89
2023/06/22 01:55:00;;;;;;;7.43;4.20;;;21.50;99.90;;;;;;5023194;28;20037;-89
2023/06/22 01:57:27;;;;;;;6.93;3.88;;;21.50;99.90;;;;;;5039872;28;20064;-89
2023/06/22 02:00:04;;;;;;;7.10;3.95;;;21.40;99.90;;;;;;5057292;28;20029;-88
2023/06/22 02:02:42;;;;;;;6.00;4.32;;;21.40;99.90;;;;;;5040445;28;20025;-89
2023/06/22 02:05:15;;;;;;;6.85;3.78;;;21.40;99.90;;;;;;5040479;28;20025;-89
2023/06/22 02:07:52;;;;;;;5.22;3.40;;;21.40;99.90;;;;;;5039327;28;20021;-89
2023/06/22 02:10:21;;;;;;;6.65;4.25;;;21.40;99.90;;;;;;5041643;28;20044;-89
2023/06/22 02:12:48;;;;;;;6.88;4.20;;;21.30;99.90;;;;;;5033274;28;20040;-88
2023/06/22 02:15:14;;;;;;;7.78;4.30;;;21.30;99.90;;;;;;5062398;28;20044;-89
2023/06/22 02:17:44;;;;;;;6.72;3.95;;;21.30;99.90;;;;;;5030348;28;20036;-89
2023/06/22 02:20:13;;;;;;;8.85;3.88;;;21.30;99.90;;;;;;5025325;28;20048;-89
2023/06/22 02:22:38;;;;;;;6.72;3.85;;;21.30;99.90;;;;;;5040112;28;20078;-88
2023/06/22 02:25:04;;;;;;;7.97;4.40;;;21.30;99.90;;;;;;5023293;28;20215;-89
2023/06/22 02:27:30;;;;;;;8.52;4.15;;;21.20;99.90;;;;;;5022993;28;20025;-89
2023/06/22 02:29:56;;;;;;;6.47;4.20;;;21.20;99.90;;;;;;5006453;28;20033;-89
2023/06/22 02:32:22;;;;;;;4.70;3.80;;;21.20;99.90;;;;;;5023017;28;20029;-89
2023/06/22 02:34:47;;;;;;;6.18;3.90;;;21.20;99.90;;;;;;5056883;28;20035;-89
2023/06/22 02:37:17;;;;;;;8.43;4.00;;;21.20;99.90;;;;;;5039030;28;20071;-89
2023/06/22 02:39:43;;;;;;;10.13;4.43;;;21.20;99.90;;;;;;5038318;28;20028;-89
2023/06/22 02:42:10;;;;;;;7.88;3.92;;;21.10;99.90;;;;;;5038576;28;20545;-89
2023/06/22 02:44:36;;;;;;;7.15;4.30;;;21.10;99.90;;;;;;5038486;28;20049;-88
2023/06/22 02:47:02;;;;;;;7.85;4.63;;;21.10;99.90;;;;;;5039231;28;20455;-88
2023/06/22 02:49:27;;;;;;;7.07;4.18;;;21.10;99.90;;;;;;5022179;28;20025;-88
2023/06/22 02:51:54;;;;;;;5.90;4.07;;;21.00;99.90;;;;;;5021600;28;20107;-89
2023/06/22 02:54:20;;;;;;;7.80;4.32;;;21.00;99.90;;;;;;5022045;28;20132;-89
2023/06/22 02:56:46;;;;;;;6.47;4.72;;;21.00;99.90;;;;;;5022308;28;20045;-89
2023/06/22 02:59:11;;;;;;;7.22;4.65;;;21.00;99.90;;;;;;5022098;28;20162;-89
2023/06/22 03:01:39;;;;;;;6.85;3.97;;;21.00;99.90;;;;;;5021968;28;20029;-90
2023/06/22 03:04:06;;;;;;;6.13;4.15;;;21.00;99.90;;;;;;5038627;28;20402;-90
2023/06/22 03:06:32;;;;;;;8.88;5.10;;;21.00;99.90;;;;;;5021766;28;20103;-90
2023/06/22 03:09:03;;;;;;;7.68;5.05;;;20.90;99.90;;;;;;5005978;28;20121;-90
2023/06/22 03:11:30;;;;;;;7.68;5.20;;;20.90;99.90;;;;;;5038188;28;20089;-89
2023/06/22 03:13:56;;;;;;;7.80;5.03;;;20.90;99.90;;;;;;5022064;28;20435;-90
2023/06/22 03:16:22;;;;;;;8.23;5.50;;;20.80;99.90;;;;;;5005848;28;20025;-90
2023/06/22 03:18:48;;;;;;;7.63;5.32;;;20.90;99.90;;;;;;5022127;28;20025;-89
2023/06/22 03:21:15;;;;;;;6.82;5.07;;;20.80;99.90;;;;;;5022150;28;20055;-89
2023/06/22 03:23:41;;;;;;;7.95;5.43;;;20.80;99.90;;;;;;5038264;28;20025;-90
2023/06/22 03:26:08;;;;;;;8.30;5.70;;;20.80;99.90;;;;;;5021354;28;20128;-89
2023/06/22 03:28:34;;;;;;;9.93;6.25;;;20.80;99.90;;;;;;5023265;28;20021;-90
2023/06/22 03:30:59;;;;;;;11.25;6.82;;;20.70;99.90;;;;;;5041487;28;20103;-88
2023/06/22 03:33:25;;;;;;;9.90;7.35;;;20.70;99.90;;;;;;5026916;28;20097;-89
2023/06/22 03:35:51;;;;;;;11.88;8.13;;;20.70;99.90;;;;;;5039298;28;20025;-89
2023/06/22 03:38:17;;;;;;;9.30;7.20;;;20.70;99.90;;;;;;5005814;28;20021;-89
2023/06/22 03:40:43;;;;;;;11.25;8.45;;;20.70;99.90;;;;;;5038332;28;20021;-89
2023/06/22 03:43:09;;;;;;;10.65;8.23;;;20.70;99.90;;;;;;5055415;28;20055;-89
2023/06/22 03:45:34;;;;;;;13.20;9.40;;;20.70;99.90;;;;;;5021719;28;20052;-90
2023/06/22 03:48:01;;;;;;;15.23;9.13;;;20.70;99.90;;;;;;5038004;28;20021;-90
2023/06/22 03:50:27;;;;;;;12.75;9.85;;;20.70;99.90;;;;;;5024889;28;20088;-90
2023/06/22 03:52:53;;;;;;;14.13;10.98;;;20.70;99.90;;;;;;5042020;28;20035;-90
2023/06/22 03:55:20;;;;;;;12.95;10.90;;;20.70;99.90;;;;;;5036544;28;20064;-89
2023/06/22 03:57:46;;;;;;;15.68;10.98;;;20.60;99.90;;;;;;5059761;28;20009;-89
2023/06/22 04:00:12;;;;;;;13.95;11.15;;;20.60;99.90;;;;;;5060851;28;20046;-89
2023/06/22 04:02:38;;;;;;;16.83;10.75;;;20.60;99.90;;;;;;5042695;28;20097;-90
2023/06/22 04:05:04;;;;;;;15.73;11.15;;;20.60;99.90;;;;;;5051913;28;20029;-90
2023/06/22 04:07:30;;;;;;;14.68;11.48;;;20.60;99.90;;;;;;5023274;28;20426;-90
2023/06/22 04:09:55;;;;;;;14.23;11.63;;;20.60;99.90;;;;;;5021329;28;20139;-90
2023/06/22 04:12:21;;;;;;;14.30;11.30;;;20.60;99.90;;;;;;5037245;28;20482;-90
2023/06/22 04:14:47;;;;;;;16.25;12.65;;;20.60;99.90;;;;;;5037766;28;20028;-90
2023/06/22 04:17:14;;;;;;;15.65;12.65;;;20.60;99.90;;;;;;5020743;28;20021;-89
2023/06/22 04:19:40;;;;;;;17.02;13.88;;;20.60;99.90;;;;;;5037157;28;20025;-90
2023/06/22 04:22:10;;;;;;;16.08;12.60;;;20.60;99.90;;;;;;5021171;28;20029;-90
2023/06/22 04:24:35;;;;;;;18.92;13.52;;;20.60;99.90;;;;;;5045292;28;20063;-90
2023/06/22 04:27:02;;;;;;;16.80;13.05;;;20.60;99.90;;;;;;5026021;28;20025;-91
2023/06/22 04:29:30;;;;;;;16.67;13.60;;;20.60;99.90;;;;;;5020684;28;20112;-90
2023/06/22 04:32:04;;;;;;;17.40;13.82;;;20.60;99.90;;;;;;5021236;28;20033;-90
2023/06/22 04:34:30;;;;;;;16.13;13.30;;;20.70;99.90;;;;;;5021966;28;20114;-90
2023/06/22 04:36:56;;;;;;;21.08;15.45;;;20.70;99.90;;;;;;5020836;28;20033;-90
2023/06/22 04:39:22;;;;;;;21.38;15.45;;;20.60;99.90;;;;;;5021801;28;20040;-90
2023/06/22 04:41:48;;;;;;;19.35;15.30;;;20.70;99.90;;;;;;5020752;28;20040;-91
2023/06/22 04:44:23;;;;;;;24.63;15.23;;;20.70;99.90;;;;;;5020756;28;20452;-90
2023/06/22 04:47:08;;;;;;;18.65;15.77;;;20.70;99.90;;;;;;5037749;28;20029;-91
2023/06/22 04:49:40;;;;;;;18.85;15.10;;;20.70;99.90;;;;;;5058752;28;20028;-90
2023/06/22 04:52:10;;;;;;;20.23;16.40;;;20.70;99.90;;;;;;5039293;28;20052;-91
2023/06/22 04:54:37;;;;;;;18.48;16.25;;;20.70;99.90;;;;;;5036580;28;20026;-84
2023/06/22 04:57:09;;;;;;;23.60;17.27;;;20.70;99.90;;;;;;5034021;28;20018;-84
2023/06/22 04:59:36;;;;;;;21.88;18.30;;;20.70;99.90;;;;;;5016519;28;20025;-85
2023/06/22 05:02:02;;;;;;;23.30;17.92;;;20.70;99.90;;;;;;5000032;28;20038;-85
2023/06/22 05:04:32;;;;;;;20.00;17.08;;;20.80;99.90;;;;;;5018975;28;20041;-91
2023/06/22 05:07:02;;;;;;;24.38;19.42;;;20.80;99.90;;;;;;5022128;28;20450;-91
2023/06/22 05:09:28;;;;;;;22.70;18.90;;;20.80;99.90;;;;;;5021335;28;20028;-89
2023/06/22 05:11:53;;;;;;;22.58;17.73;;;20.80;99.90;;;;;;5005088;28;20072;-90
2023/06/22 05:14:19;;;;;;;21.35;17.35;;;20.90;99.90;;;;;;5005730;28;20034;-90
2023/06/22 05:16:46;;;;;;;21.70;18.33;;;20.90;99.90;;;;;;5020980;28;20037;-90
2023/06/22 05:19:12;;;;;;;22.65;18.52;;;20.90;99.90;;;;;;5038476;28;20064;-89
2023/06/22 05:21:38;;;;;;;21.38;17.63;;;20.90;99.90;;;;;;5020645;28;20385;-90
2023/06/22 05:24:04;;;;;;;20.27;18.08;;;21.00;99.90;;;;;;5005183;28;20129;-90
2023/06/22 05:26:32;;;;;;;21.25;17.42;;;21.00;99.90;;;;;;5039164;28;20026;-92
2023/06/22 05:28:59;;;;;;;19.00;16.77;;;21.00;99.90;;;;;;5005615;28;20090;-89
2023/06/22 05:31:29;;;;;;;21.35;17.75;;;21.00;99.90;;;;;;5021241;28;20138;-90
2023/06/22 05:33:56;;;;;;;21.73;18.60;;;21.10;99.90;;;;;;5022443;28;20025;-91
2023/06/22 05:36:24;;;;;;;21.88;17.50;;;21.10;99.90;;;;;;5024680;28;20083;-90
2023/06/22 05:38:51;;;;;;;25.83;19.20;;;21.10;99.90;;;;;;5005818;28;20584;-91
2023/06/22 05:41:16;;;;;;;22.08;18.17;;;21.10;99.90;;;;;;5020502;28;20093;-89
2023/06/22 05:43:42;;;;;;;21.63;16.20;;;21.10;99.90;;;;;;5020461;28;20087;-89
2023/06/22 05:46:08;;;;;;;18.33;15.80;;;21.10;99.90;;;;;;5004959;28;20112;-90
2023/06/22 05:48:33;;;;;;;19.85;16.80;;;21.20;99.90;;;;;;5005307;28;20034;-90
2023/06/22 05:50:59;;;;;;;20.08;16.08;;;21.20;99.90;;;;;;5005199;28;20036;-90
2023/06/22 05:53:25;;;;;;;18.52;15.50;;;21.20;99.90;;;;;;5021224;28;20462;-91
2023/06/22 05:55:50;;;;;;;25.92;15.45;;;21.20;99.90;;;;;;5038917;28;20028;-89
2023/06/22 05:58:16;;;;;;;19.88;15.45;;;21.20;99.90;;;;;;5004958;28;20036;-88
2023/06/22 06:00:43;;;;;;;19.23;14.02;;;21.30;99.90;;;;;;5037052;28;20497;-89
2023/06/22 06:03:09;;;;;;;19.30;15.23;;;21.30;99.90;;;;;;5020456;28;20031;-89
2023/06/22 06:05:36;;;;;;;15.48;13.70;;;21.30;99.90;;;;;;5020347;28;20025;-89
2023/06/22 06:08:07;;;;;;;16.73;14.30;;;21.30;99.90;;;;;;5023621;28;20021;-89
2023/06/22 06:10:33;;;;;;;15.18;12.90;;;21.30;99.90;;;;;;5029710;28;20010;-87
2023/06/22 06:13:01;;;;;;;16.08;12.95;;;21.30;99.90;;;;;;5026535;28;20029;-87
2023/06/22 06:15:28;;;;;;;16.98;12.65;;;21.40;99.90;;;;;;5029809;28;20057;-87
2023/06/22 06:17:54;;;;;;;15.32;12.77;;;21.40;99.90;;;;;;4986394;28;20390;-87
2023/06/22 06:20:22;;;;;;;14.88;12.82;;;21.40;99.90;;;;;;4987076;28;20112;-89
2023/06/22 06:22:48;;;;;;;17.50;13.88;;;21.50;99.90;;;;;;5002983;28;20149;-88
2023/06/22 06:25:18;;;;;;;16.98;13.45;;;21.50;99.90;;;;;;5003033;28;20045;-90
2023/06/22 06:27:47;;;;;;;16.50;13.30;;;21.50;99.90;;;;;;5004404;28;20025;-90
2023/06/22 06:30:15;;;;;;;17.35;13.15;;;21.60;99.90;;;;;;5036463;28;20025;-90
2023/06/22 06:32:42;;;;;;;15.75;13.57;;;21.60;99.90;;;;;;5019466;28;20096;-90
2023/06/22 06:35:09;;;;;;;18.27;14.98;;;21.60;99.90;;;;;;5018943;28;20040;-89
2023/06/22 06:37:40;;;;;;;16.70;13.73;;;21.70;99.90;;;;;;5019688;28;20052;-89
2023/06/22 06:40:10;;;;;;;16.25;14.27;;;21.70;99.90;;;;;;5003409;28;20029;-88
2023/06/22 06:42:41;;;;;;;17.25;13.85;;;21.70;99.90;;;;;;5041475;28;20024;-89
2023/06/22 06:45:07;;;;;;;;;;;21.80;99.90;;;;;;5023575;28;20478;-90
2023/06/22 06:47:33;;;;;;;16.77;13.73;;;21.80;99.90;;;;;;5039184;28;19909;-89
2023/06/22 06:49:59;;;;;;;15.95;13.85;;;21.80;99.90;;;;;;5039129;28;20033;-89
2023/06/22 06:52:26;;;;;;;15.77;13.60;;;21.90;99.90;;;;;;5039249;28;20028;-90
2023/06/22 06:54:52;;;;;;;16.10;13.68;;;21.90;99.90;;;;;;5038894;28;20021;-89
2023/06/22 06:57:18;;;;;;;16.80;13.45;;;21.90;99.90;;;;;;5039691;28;20031;-89
2023/06/22 06:59:44;;;;;;;17.15;14.68;;;22.00;99.90;;;;;;5039897;28;20024;-89
2023/06/22 07:02:10;;;;;;;14.77;12.70;;;22.00;99.90;;;;;;5039731;28;20466;-90
2023/06/22 07:04:38;;;;;;;16.05;13.18;;;22.00;99.90;;;;;;5039456;28;20021;-89
2023/06/22 07:07:04;;;;;;;17.05;14.48;;;22.10;99.90;;;;;;5043370;28;20025;-90
2023/06/22 07:09:33;;;;;;;14.68;12.80;;;22.10;99.90;;;;;;5045377;28;20047;-89
2023/06/22 07:11:58;;;;;;;16.98;13.60;;;22.20;99.90;;;;;;5062032;28;20033;-90
2023/06/22 07:14:24;;;;;;;17.35;14.23;;;22.20;99.90;;;;;;5060742;28;20092;-89
2023/06/22 07:16:50;;;;;;;15.73;12.77;;;22.20;99.90;;;;;;5042336;28;20044;-90
2023/06/22 07:19:16;;;;;;;16.13;13.70;;;22.30;99.90;;;;;;5006328;28;20041;-91
2023/06/22 07:21:42;;;;;;;15.70;13.88;;;22.30;99.90;;;;;;5037851;28;20049;-90
2023/06/22 07:24:07;;;;;;;16.42;13.50;;;22.30;99.90;;;;;;5021824;28;20067;-90
2023/06/22 07:26:34;;;;;;;15.18;13.57;;;22.40;99.90;;;;;;5039148;28;20021;-89
2023/06/22 07:28:59;;;;;;;16.85;13.65;;;22.40;99.90;;;;;;5041738;28;20523;-87
2023/06/22 07:31:25;;;;;;;13.95;12.43;;;22.40;99.90;;;;;;5077541;28;20057;-84
2023/06/22 07:33:51;;;;;;;14.05;12.40;;;22.50;99.90;;;;;;5046643;28;20021;-88
2023/06/22 07:36:17;;;;;;;14.57;12.93;;;22.50;99.90;;;;;;5039272;28;20458;-89
2023/06/22 07:38:43;;;;;;;19.20;13.40;;;22.50;99.90;;;;;;5055989;28;20020;-87
2023/06/22 07:41:09;;;;;;;14.85;12.45;;;22.60;99.90;;;;;;5021342;28;20059;-88
2023/06/22 07:43:36;;;;;;;15.88;12.90;;;22.60;99.90;;;;;;5057447;28;20142;-88
2023/06/22 07:46:03;;;;;;;13.20;10.90;;;22.60;99.90;;;;;;5057806;28;20027;-87
2023/06/22 07:48:29;;;;;;;13.48;11.55;;;22.60;99.90;;;;;;5060929;28;20021;-88
2023/06/22 07:50:55;;;;;;;12.50;10.63;;;22.70;99.90;;;;;;5061164;28;20009;-88
2023/06/22 07:53:21;;;;;;;12.18;10.00;;;22.70;99.90;;;;;;5038245;28;20092;-86
2023/06/22 07:55:47;;;;;;;11.35;9.70;;;22.80;99.90;;;;;;5050990;28;20013;-86
2023/06/22 07:58:13;;;;;;;14.25;11.00;;;22.80;99.90;;;;;;5027679;28;20024;-88
2023/06/22 08:00:39;;;;;;;11.95;9.45;;;22.80;99.90;;;;;;5061118;28;20037;-87
2023/06/22 08:03:05;;;;;;;14.70;9.98;;;22.80;99.90;;;;;;5077807;28;20005;-88
2023/06/22 08:05:31;;;;;;;11.05;9.38;;;22.90;99.90;;;;;;5031809;28;20101;-88
2023/06/22 08:07:57;;;;;;;10.75;9.10;;;22.90;99.90;;;;;;5052494;28;20036;-88
2023/06/22 08:10:23;;;;;;;12.25;9.88;;;22.90;99.90;;;;;;5037359;28;20025;-89
2023/06/22 08:12:49;;;;;;;12.32;9.15;;;23.00;99.90;;;;;;5037553;28;20040;-88
2023/06/22 08:15:26;;;;;;;11.93;9.60;;;23.00;99.90;;;;;;5019674;28;20090;-89
2023/06/22 08:17:52;;;;;;;13.20;9.75;;;23.00;99.90;;;;;;5005319;28;20025;-89
2023/06/22 08:20:18;;;;;;;10.27;9.07;;;23.00;99.90;;;;;;5002784;28;20029;-89
2023/06/22 08:22:46;;;;;;;12.43;10.00;;;23.10;99.90;;;;;;5017798;28;20103;-93
2023/06/22 08:25:13;;;;;;;11.85;9.98;;;23.10;99.90;;;;;;5018284;28;20049;-90
2023/06/22 08:27:40;;;;;;;11.75;9.48;;;23.10;99.90;;;;;;5000286;28;20026;-91
2023/06/22 08:30:18;;;;;;;11.07;9.07;;;23.10;99.90;;;;;;5001172;28;20026;-90
2023/06/22 08:32:44;;;;;;;10.68;8.63;;;23.20;99.90;;;;;;5001867;28;20083;-90
2023/06/22 08:35:22;;;;;;;10.60;7.82;;;23.20;99.90;;;;;;5017205;28;20029;-90
2023/06/22 08:37:56;;;;;;;13.18;8.45;;;23.30;99.90;;;;;;5018027;28;20131;-91
2023/06/22 08:40:24;;;;;;;8.73;7.32;;;23.30;99.90;;;;;;5001472;28;20034;-89
2023/06/22 08:42:53;;;;;;;10.85;7.47;;;23.30;99.90;;;;;;5017765;28;20033;-89
2023/06/22 08:45:18;;;;;;;8.75;6.57;;;23.30;99.90;;;;;;5013677;28;20083;-89
2023/06/22 08:47:52;;;;;;;9.27;7.28;;;23.40;99.90;;;;;;5012070;28;20030;-90
2023/06/22 08:50:17;;;;;;;9.98;6.63;;;23.40;99.90;;;;;;5025270;28;20049;-90
2023/06/22 08:52:43;;;;;;;9.48;6.90;;;23.40;99.90;;;;;;5027298;28;20041;-90
2023/06/22 08:55:10;;;;;;;9.68;6.72;;;23.50;99.90;;;;;;5017682;28;20091;-91
2023/06/22 08:57:40;;;;;;;9.02;6.63;;;23.60;99.90;;;;;;5017906;28;20088;-90
2023/06/22 09:00:16;;;;;;;8.63;6.97;;;23.60;99.90;;;;;;5018058;28;20021;-93
2023/06/22 09:02:42;;;;;;;8.25;6.50;;;23.60;99.90;;;;;;5016938;28;20048;-87
2023/06/22 09:05:08;;;;;;;7.43;5.88;;;23.60;99.90;;;;;;5017943;28;20038;-84
2023/06/22 09:07:34;;;;;;;9.63;7.25;;;23.70;99.90;;;;;;5015647;28;20022;-84
2023/06/22 09:10:00;;;;;;;9.32;6.97;;;23.70;99.90;;;;;;5015065;28;20030;-84
2023/06/22 09:12:27;;;;;;;11.55;8.48;;;23.80;99.90;;;;;;5016027;28;20390;-84
2023/06/22 09:14:53;;;;;;;11.30;7.28;;;23.70;99.90;;;;;;4999795;28;20482;-84
2023/06/22 09:17:18;;;;;;;9.82;7.05;;;23.80;99.90;;;;;;4999486;28;20036;-84
2023/06/22 09:19:44;;;;;;;10.38;7.05;;;23.80;99.90;;;;;;5015504;28;20108;-84
2023/06/22 09:22:10;;;;;;;9.70;7.00;;;23.90;99.90;;;;;;5015775;28;20087;-84
2023/06/22 09:24:36;;;;;;;8.57;6.90;;;23.90;99.90;;;;;;4999172;28;20067;-84
2023/06/22 09:27:01;;;;;;;10.32;7.57;;;23.90;99.90;;;;;;5015448;28;20104;-84
2023/06/22 09:29:27;;;;;;;8.70;7.38;;;24.00;99.90;;;;;;5017495;28;20032;-83
2023/06/22 09:31:55;;;;;;;10.13;7.20;;;24.00;99.90;;;;;;5018112;28;20048;-83
2023/06/22 09:34:21;;;;;;;7.97;6.75;;;24.00;99.90;;;;;;5035566;28;20025;-84
2023/06/22 09:36:47;;;;;;;9.50;7.10;;;24.10;99.90;;;;;;5000434;28;20035;-88
2023/06/22 09:39:13;;;;;;;8.50;6.95;;;24.10;99.90;;;;;;4997851;28;20034;-88
2023/06/22 09:41:38;;;;;;;9.70;6.85;;;24.10;99.90;;;;;;4983730;28;20038;-87
2023/06/22 09:44:04;;;;;;;8.43;6.30;;;24.10;99.90;;;;;;5015509;28;20053;-86
2023/06/22 09:46:31;;;;;;;7.32;5.80;;;24.20;99.90;;;;;;5033677;28;20017;-92
2023/06/22 09:48:56;;;;;;;7.53;5.63;;;24.20;99.90;;;;;;5002474;28;20053;-94
2023/06/22 09:51:23;;;;;;;9.32;5.00;;;24.20;99.90;;;;;;5005424;28;20038;-93
2023/06/22 09:53:53;;;;;;;8.82;5.30;;;24.20;99.90;;;;;;5040370;28;20056;-94
2023/06/22 09:56:18;;;;;;;6.82;5.00;;;24.20;99.90;;;;;;5007093;28;20080;-93
2023/06/22 09:58:46;;;;;;;5.63;4.50;;;24.20;99.90;;;;;;5022781;28;20026;-93
2023/06/22 10:01:14;;;;;;;6.70;5.55;;;24.20;99.90;;;;;;5024599;28;20030;-94
2023/06/22 10:03:43;;;;;;;8.35;5.70;;;24.20;99.90;;;;;;5038192;28;20106;-93
2023/06/22 10:06:09;;;;;;;7.38;4.97;;;24.20;99.90;;;;;;5042493;28;20022;-91
2023/06/22 10:08:35;;;;;;;7.60;5.32;;;24.20;99.90;;;;;;5026034;28;20133;-93
2023/06/22 10:11:01;;;;;;;5.85;4.78;;;24.20;99.90;;;;;;5018140;28;20137;-90
2023/06/22 10:13:27;;;;;;;6.85;4.90;;;24.30;99.90;;;;;;5024623;28;20065;-92
2023/06/22 10:15:53;;;;;;;6.43;4.53;;;24.30;99.90;;;;;;5028006;28;20085;-92
2023/06/22 10:18:19;;;;;;;6.20;4.43;;;24.30;99.90;;;;;;5026912;28;20021;-93
2023/06/22 10:20:48;;;;;;;5.95;4.57;;;24.30;99.90;;;;;;5027588;28;20021;-89
2023/06/22 10:23:14;;;;;;;6.55;4.35;;;24.30;99.90;;;;;;5040917;28;20009;-93
2023/06/22 10:25:42;;;;;;;5.85;4.45;;;24.30;99.90;;;;;;5015235;28;20030;-94
2023/06/22 10:28:08;;;;;;;5.07;4.47;;;24.30;99.90;;;;;;5008563;28;20200;-92
2023/06/22 10:30:34;;;;;;;5.93;4.22;;;24.30;99.90;;;;;;5021054;28;20121;-90
2023/06/22 10:33:00;;;;;;;6.72;4.85;;;24.30;99.90;;;;;;5021324;28;20037;-94
2023/06/22 10:35:25;;;;;;;7.28;4.75;;;24.30;99.90;;;;;;5038350;28;20083;-94
2023/06/22 10:37:52;;;;;;;7.82;4.60;;;24.30;99.90;;;;;;5004722;28;20057;-92
2023/06/22 10:40:18;;;;;;;5.97;4.25;;;24.30;99.90;;;;;;5021291;28;20471;-92
2023/06/22 10:42:44;;;;;;;6.45;4.68;;;24.30;99.90;;;;;;5004925;28;20110;-94
2023/06/22 10:45:11;;;;;;;5.90;4.45;;;24.30;99.90;;;;;;5018759;28;20053;-88
2023/06/22 10:47:36;;;;;;;8.07;5.10;;;24.40;99.90;;;;;;5002765;28;20037;-88
2023/06/22 10:50:03;;;;;;;6.57;4.68;;;24.40;99.90;;;;;;5001658;28;20029;-83
2023/06/22 10:52:29;;;;;;;7.18;4.68;;;24.40;99.90;;;;;;5017798;28;20033;-84
2023/06/22 10:54:54;;;;;;;6.75;4.80;;;24.40;99.90;;;;;;5001067;28;20026;-83
2023/06/22 10:57:22;;;;;;;7.25;5.13;;;24.50;99.90;;;;;;5015552;28;20060;-88
2023/06/22 10:59:47;;;;;;;7.13;5.10;;;24.50;99.90;;;;;;5036952;28;20029;-82
2023/06/22 11:02:13;;;;;;;7.93;5.10;;;24.50;99.90;;;;;;5036390;28;20095;-82
2023/06/22 11:04:39;;;;;;;7.47;5.20;;;24.50;99.90;;;;;;5004307;28;20037;-82
2023/06/22 11:07:05;;;;;;;7.25;4.90;;;24.50;99.90;;;;;;5020380;28;20053;-82
2023/06/22 11:09:31;;;;;;;6.68;5.30;;;24.50;99.90;;;;;;5036992;28;20044;-83
2023/06/22 11:11:58;;;;;;;8.40;5.05;;;24.50;99.90;;;;;;5037209;28;20029;-82
2023/06/22 11:14:24;;;;;;;7.63;5.70;;;24.50;99.90;;;;;;5033634;28;20049;-82
2023/06/22 11:16:50;;;;;;;8.43;5.55;;;24.50;99.90;;;;;;4995491;28;20049;-82
2023/06/22 11:19:16;;;;;;;7.32;5.88;;;24.50;99.90;;;;;;5019262;28;20478;-82
2023/06/22 11:21:41;;;;;;;8.90;5.55;;;24.50;99.90;;;;;;5020494;28;20107;-82
2023/06/22 11:24:07;;;;;;;8.45;5.78;;;24.50;99.90;;;;;;5013402;28;20057;-83
2023/06/22 11:26:33;;;;;;;9.52;5.85;;;24.50;99.90;;;;;;5032202;28;20025;-88
2023/06/22 11:29:08;;;;;;;8.25;6.05;;;24.50;99.90;;;;;;5034848;28;20038;-89
2023/06/22 11:31:35;;;;;;;7.60;6.40;;;24.50;99.90;;;;;;5008951;28;20037;-88
2023/06/22 11:34:06;;;;;;;8.52;6.72;;;24.50;99.90;;;;;;5030363;28;20481;-89
2023/06/22 11:36:39;;;;;;;11.02;6.82;;;24.50;99.90;;;;;;5037875;28;20017;-88
2023/06/22 11:39:05;;;;;;;9.90;7.22;;;24.50;99.90;;;;;;5028405;28;20026;-90
2023/06/22 11:41:31;;;;;;;10.27;7.57;;;24.50;99.90;;;;;;5038246;28;20078;-89
2023/06/22 11:44:04;;;;;;;8.50;7.45;;;24.50;99.90;;;;;;5037599;28;20406;-89
2023/06/22 11:46:31;;;;;;;10.98;8.15;;;24.50;99.90;;;;;;5037679;28;20493;-88
2023/06/22 11:48:57;;;;;;;9.82;8.13;;;24.40;99.90;;;;;;5037273;28;20035;-88
2023/06/22 11:51:23;;;;;;;10.15;8.73;;;24.40;99.90;;;;;;5056353;28;20036;-89
2023/06/22 11:53:49;;;;;;;10.38;8.77;;;24.40;99.90;;;;;;5032640;28;20063;-89
2023/06/22 11:56:22;;;;;;;11.55;9.00;;;24.30;99.90;;;;;;5056237;28;20029;-91
2023/06/22 11:58:57;;;;;;;13.98;9.75;;;24.30;99.90;;;;;;5044331;28;20032;-88
2023/06/22 12:01:23;;;;;;;11.52;10.32;;;24.30;99.90;;;;;;5059955;28;20042;-89
2023/06/22 12:03:49;;;;;;;11.82;10.10;;;24.20;99.90;;;;;;5054513;28;20021;-88
2023/06/22 12:06:15;;;;;;;12.20;10.45;;;24.20;99.90;;;;;;5055198;28;20032;-89
2023/06/22 12:08:49;;;;;;;15.27;10.95;;;24.20;99.90;;;;;;5058241;28;20017;-88
2023/06/22 12:11:15;;;;;;;14.88;11.70;;;24.20;99.90;;;;;;5054529;28;20029;-88
2023/06/22 12:13:44;;;;;;;17.23;12.20;;;24.10;99.90;;;;;;5039935;28;20474;-88
2023/06/22 12:16:13;;;;;;;13.60;12.15;;;24.10;99.90;;;;;;5021071;28;20063;-88
2023/06/22 12:18:39;;;;;;;17.58;12.75;;;24.00;99.90;;;;;;5036650;28;20459;-87
2023/06/22 12:21:05;;;;;;;17.58;13.45;;;24.00;99.90;;;;;;5020234;28;20029;-87
2023/06/22 12:23:31;;;;;;;17.17;13.48;;;23.90;99.90;;;;;;5036248;28;20028;-87
2023/06/22 12:25:56;;;;;;;19.10;13.85;;;23.90;99.90;;;;;;5036734;28;20413;-88
2023/06/22 12:28:23;;;;;;;14.52;12.75;;;23.80;99.90;;;;;;5019987;28;20052;-87
2023/06/22 12:30:49;;;;;;;15.30;13.23;;;23.90;99.90;;;;;;5036291;28;20385;-88
2023/06/22 12:33:14;;;;;;;15.77;13.27;;;23.80;99.90;;;;;;5036596;28;20045;-88
2023/06/22 12:35:40;;;;;;;14.80;13.23;;;23.70;99.90;;;;;;5020446;28;20041;-88
2023/06/22 12:38:08;;;;;;;16.65;13.82;;;23.70;99.90;;;;;;5020552;28;20115;-88
2023/06/22 12:40:33;;;;;;;16.75;14.25;;;23.60;99.90;;;;;;5054406;28;20025;-88
2023/06/22 12:42:59;;;;;;;16.55;14.85;;;23.60;99.90;;;;;;5021138;28;20390;-88
2023/06/22 12:45:28;;;;;;;17.52;15.13;;;23.50;99.90;;;;;;5053250;28;20069;-88
2023/06/22 12:47:57;;;;;;;16.35;14.70;;;23.40;99.90;;;;;;5042789;28;20032;-89